Time;durP1;ratioP1;P1;durP2;ratioP2;P2;SDS_P1;SDS_P2;PMS_P1;PMS_P2;Temp;Humidity;BMP_temperature;BMP_pressure;BME280_temperature;BME280_humidity;BME280_pressure;Samples;Min_cycle;Max_cycle;Signal;HPM_P1;HPM_P2
2021/01/01 00:01:48;;;;;;;66.07;33.03;;;;;;;2.35;76.29;98100.77;119793;1151;104401;-71
2021/01/01 00:04:15;;;;;;;68.67;33.57;;;;;;;2.32;76.85;98100.93;120104;1153;104384;-69
2021/01/01 00:06:49;;;;;;;71.05;35.95;;;;;;;2.32;76.17;98098.30;119889;1152;104383;-73
2021/01/01 00:09:20;;;;;;;67.97;34.33;;;;;;;2.30;76.50;98098.38;119887;1153;105224;-70
2021/01/01 00:11:50;;;;;;;79.67;38.40;;;;;;;2.32;76.91;98104.39;119866;1153;104354;-68
2021/01/01 00:14:18;;;;;;;74.97;37.50;;;;;;;2.32;76.70;98103.55;120004;1151;104402;-71
2021/01/01 00:16:45;;;;;;;79.67;37.03;;;;;;;2.30;76.66;98111.49;121941;1151;102206;-70
2021/01/01 00:19:12;;;;;;;77.80;38.90;;;;;;;2.31;76.35;98107.94;120616;1151;104460;-69
2021/01/01 00:21:39;;;;;;;75.52;36.48;;;;;;;2.33;76.16;98106.08;119858;1151;104518;-70
2021/01/01 00:24:09;;;;;;;76.83;38.03;;;;;;;2.32;76.28;98108.80;120570;1152;104460;-69
2021/01/01 00:26:36;;;;;;;73.30;35.67;;;;;;;2.30;76.67;98102.79;119708;1153;104484;-69
2021/01/01 00:29:06;;;;;;;69.37;35.50;;;;;;;2.26;76.36;98107.34;119814;1153;104386;-70
2021/01/01 00:31:33;;;;;;;82.80;39.47;;;;;;;2.21;76.16;98099.73;119789;1153;104453;-69
2021/01/01 00:34:00;;;;;;;82.57;37.10;;;;;;;2.14;76.45;98108.85;119851;1152;104451;-70
2021/01/01 00:36:27;;;;;;;84.93;37.13;;;;;;;2.11;76.76;98105.56;119762;1154;104535;-69
2021/01/01 00:38:53;;;;;;;82.40;36.88;;;;;;;2.07;76.59;98113.59;119741;1153;104439;-67
2021/01/01 00:41:30;;;;;;;72.10;33.67;;;;;;;2.04;76.29;98118.14;121814;1152;102368;-69
2021/01/01 00:43:59;;;;;;;79.80;38.67;;;;;;;2.03;76.89;98116.47;120157;1151;104465;-69
2021/01/01 00:46:29;;;;;;;75.30;34.75;;;;;;;1.99;76.57;98113.14;120561;1151;104522;-69
2021/01/01 00:48:59;;;;;;;74.00;35.20;;;;;;;1.99;76.59;98118.39;119947;1151;104375;-70
2021/01/01 00:51:28;;;;;;;76.47;35.03;;;;;;;1.99;76.76;98118.39;119739;1153;104525;-69
2021/01/01 00:53:57;;;;;;;75.27;36.33;;;;;;;1.97;77.00;98117.63;119632;1153;104548;-68
2021/01/01 00:56:25;;;;;;;70.53;32.93;;;;;;;1.97;76.40;98112.38;119665;1154;104485;-67
2021/01/01 00:58:54;;;;;;;70.73;31.87;;;;;;;1.95;76.50;98116.86;121644;1152;103424;-69
2021/01/01 01:01:27;;;;;;;69.57;32.47;;;;;;;1.95;76.45;98118.64;122102;1153;102044;-69
2021/01/01 01:03:57;;;;;;;71.07;33.80;;;;;;;1.93;76.65;98121.33;119669;1153;104502;-69
2021/01/01 01:06:30;;;;;;;59.43;26.93;;;;;;;1.91;76.50;98113.56;119649;1152;104578;-69
2021/01/01 01:08:57;;;;;;;65.03;30.00;;;;;;;1.87;76.83;98117.27;119915;1153;104455;-68
2021/01/01 01:11:29;;;;;;;70.90;32.53;;;;;;;1.85;76.16;98124.37;119969;1151;104358;-68
2021/01/01 01:13:59;;;;;;;69.90;35.33;;;;;;;1.87;76.66;98124.27;121059;1151;104487;-69
2021/01/01 01:16:30;;;;;;;70.47;34.87;;;;;;;1.87;76.64;98126.89;119808;1153;104498;-69
2021/01/01 01:19:01;;;;;;;73.17;34.30;;;;;;;1.87;77.03;98133.00;119843;1154;104503;-67
2021/01/01 01:21:29;;;;;;;74.50;33.27;;;;;;;1.85;76.72;98123.50;119968;1152;104496;-66
2021/01/01 01:23:56;;;;;;;69.53;34.07;;;;;;;1.86;77.11;98125.20;119836;1153;104514;-67
2021/01/01 01:26:24;;;;;;;69.97;33.73;;;;;;;1.86;76.54;98125.20;119845;1153;104824;-70
2021/01/01 01:28:52;;;;;;;72.50;33.97;;;;;;;1.86;77.01;98128.69;120866;1152;104351;-68
2021/01/01 01:31:20;;;;;;;69.83;33.43;;;;;;;1.86;77.20;98123.44;120066;1152;104427;-69
2021/01/01 01:33:48;;;;;;;71.73;34.63;;;;;;;1.87;76.96;98132.14;120037;1152;104925;-70
2021/01/01 01:36:16;;;;;;;75.47;34.13;;;;;;;1.87;76.90;98129.52;119921;1153;104455;-69
2021/01/01 01:38:42;;;;;;;68.63;32.53;;;;;;;1.82;76.84;98126.31;119844;1153;104423;-69
2021/01/01 01:41:09;;;;;;;71.97;32.27;;;;;;;1.78;76.88;98125.61;119720;1153;104449;-69
2021/01/01 01:43:40;;;;;;;73.33;35.20;;;;;;;1.76;77.31;98120.46;119834;1153;104460;-70
2021/01/01 01:46:08;;;;;;;66.03;31.13;;;;;;;1.75;77.18;98129.25;119965;1153;104496;-67
2021/01/01 01:48:39;;;;;;;55.97;24.97;;;;;;;1.78;77.40;98129.09;119884;1153;104474;-70
2021/01/01 01:51:13;;;;;;;69.87;32.83;;;;;;;1.76;77.38;98132.70;120983;1153;104374;-69
2021/01/01 01:53:47;;;;;;;70.67;32.13;;;;;;;1.75;77.26;98129.25;119981;1153;104388;-69
2021/01/01 01:56:16;;;;;;;63.50;30.80;;;;;;;1.77;77.18;98127.40;119905;1153;104461;-69
2021/01/01 01:58:46;;;;;;;63.40;30.80;;;;;;;1.78;77.18;98130.85;119966;1152;104401;-69
2021/01/01 02:01:15;;;;;;;67.13;33.07;;;;;;;1.78;77.40;98134.34;119974;1153;104934;-70
2021/01/01 02:03:46;;;;;;;69.27;32.47;;;;;;;1.79;76.83;98137.80;119765;1153;104389;-68
2021/01/01 02:06:13;;;;;;;68.55;31.85;;;;;;;1.81;76.88;98135.11;119848;1149;104451;-69
2021/01/01 02:08:45;;;;;;;62.97;30.43;;;;;;;1.80;76.86;98128.17;119737;1153;104426;-69
2021/01/01 02:11:12;;;;;;;65.30;30.20;;;;;;;1.84;77.34;98130.54;119736;1153;104523;-69
2021/01/01 02:13:43;;;;;;;62.58;28.55;;;;;;;1.86;77.40;98135.69;120657;1153;104352;-70
2021/01/01 02:16:10;;;;;;;63.97;30.57;;;;;;;1.85;77.03;98126.13;119871;1153;104483;-70
2021/01/01 02:18:45;;;;;;;61.67;28.87;;;;;;;1.84;76.95;98134.92;119952;1153;105046;-64
2021/01/01 02:21:19;;;;;;;63.67;27.50;;;;;;;1.85;77.48;98133.99;119911;1153;104380;-71
2021/01/01 02:23:47;;;;;;;56.47;25.30;;;;;;;1.86;77.57;98133.06;119967;1154;104523;-69
2021/01/01 02:26:15;;;;;;;56.27;24.70;;;;;;;1.86;76.79;98131.31;120574;1151;104510;-69
2021/01/01 02:28:44;;;;;;;59.90;25.90;;;;;;;1.87;76.92;98127.76;119790;1151;104364;-68
2021/01/01 02:31:11;;;;;;;58.80;25.60;;;;;;;1.87;77.02;98130.38;120017;1151;104537;-70
2021/01/01 02:33:41;;;;;;;53.07;22.73;;;;;;;1.87;77.27;98133.00;119944;1153;104461;-70
2021/01/01 02:36:10;;;;;;;48.93;20.77;;;;;;;1.82;77.05;98134.19;119965;1151;104426;-70
2021/01/01 02:38:42;;;;;;;57.50;26.65;;;;;;;1.78;77.69;98136.09;120004;1153;104470;-70
2021/01/01 02:41:11;;;;;;;51.00;23.70;;;;;;;1.76;77.17;98133.57;121084;1152;104404;-68
2021/01/01 02:43:38;;;;;;;62.90;25.57;;;;;;;1.76;77.04;98130.95;119975;1153;104429;-70
2021/01/01 02:46:05;;;;;;;59.40;26.87;;;;;;;1.80;77.60;98130.80;119886;1151;104371;-71
2021/01/01 02:48:32;;;;;;;58.80;27.00;;;;;;;1.83;77.24;98134.09;119811;1153;104446;-69
2021/01/01 02:50:59;;;;;;;64.17;27.40;;;;;;;1.85;77.79;98132.23;119803;1153;104621;-70
2021/01/01 02:53:28;;;;;;;59.90;24.43;;;;;;;1.85;77.20;98133.99;120532;1151;104404;-71
2021/01/01 02:55:56;;;;;;;62.70;27.03;;;;;;;1.83;76.79;98135.88;119889;1151;104454;-70
2021/01/01 02:58:23;;;;;;;58.97;25.23;;;;;;;1.83;77.59;98123.59;120045;1151;104429;-68
2021/01/01 03:00:50;;;;;;;72.17;25.73;;;;;;;1.83;77.49;98134.09;119992;1151;104454;-69
2021/01/01 03:03:17;;;;;;;59.77;26.40;;;;;;;1.81;76.88;98130.70;119941;1153;104902;-71
2021/01/01 03:05:47;;;;;;;59.60;26.52;;;;;;;1.77;77.81;98126.53;119779;1153;104455;-70
2021/01/01 03:08:14;;;;;;;58.97;23.90;;;;;;;1.76;77.52;98138.81;120437;1153;104326;-70
2021/01/01 03:10:41;;;;;;;64.33;25.10;;;;;;;1.75;77.50;98134.50;119769;1151;104356;-69
2021/01/01 03:13:08;;;;;;;61.87;25.20;;;;;;;1.70;77.41;98133.02;121095;1152;104025;-69
2021/01/01 03:15:35;;;;;;;61.08;25.23;;;;;;;1.71;77.48;98134.72;120019;1151;104513;-70
2021/01/01 03:18:02;;;;;;;51.80;22.37;;;;;;;1.70;77.46;98133.87;119893;1151;104534;-71
2021/01/01 03:20:30;;;;;;;54.03;23.53;;;;;;;1.69;77.94;98134.81;119769;1153;104465;-71
2021/01/01 03:22:57;;;;;;;46.57;19.83;;;;;;;1.68;77.71;98142.73;121518;1151;102236;-70
2021/01/01 03:25:24;;;;;;;61.17;26.13;;;;;;;1.66;77.32;98136.72;120651;1151;104387;-68
2021/01/01 03:27:51;;;;;;;63.70;24.35;;;;;;;1.64;77.59;98134.19;119955;1153;104377;-71
2021/01/01 03:30:18;;;;;;;52.03;23.80;;;;;;;1.62;77.65;98139.53;119858;1153;104381;-71
2021/01/01 03:32:46;;;;;;;53.47;21.70;;;;;;;1.62;77.26;98143.91;119984;1153;104500;-69
2021/01/01 03:35:13;;;;;;;57.78;23.47;;;;;;;1.58;77.55;98145.85;119963;1153;104404;-71
2021/01/01 03:37:40;;;;;;;67.97;26.43;;;;;;;1.58;77.30;98152.84;119904;1153;104498;-71
2021/01/01 03:40:07;;;;;;;57.03;23.05;;;;;;;1.56;77.10;98154.70;119805;1151;104451;-70
2021/01/01 03:42:34;;;;;;;59.57;24.60;;;;;;;1.53;77.50;98155.72;120029;1151;104377;-71
2021/01/01 03:45:01;;;;;;;60.67;24.23;;;;;;;1.49;77.76;98155.00;119998;1151;104506;-69
2021/01/01 03:47:29;;;;;;;56.60;23.92;;;;;;;1.46;77.51;98154.32;119808;1152;104461;-69
2021/01/01 03:49:57;;;;;;;58.90;24.63;;;;;;;1.44;77.56;98159.62;119788;1153;104501;-69
2021/01/01 03:52:24;;;;;;;54.13;23.80;;;;;;;1.45;77.65;98161.32;119709;1153;104375;-68
2021/01/01 03:54:51;;;;;;;59.00;27.73;;;;;;;1.49;78.17;98162.86;119911;1153;104492;-71
2021/01/01 03:57:17;;;;;;;53.60;22.23;;;;;;;1.51;77.62;98162.81;120387;1153;104375;-69
2021/01/01 03:59:44;;;;;;;65.67;29.27;;;;;;;1.48;77.42;98160.34;119913;1153;104444;-68
2021/01/01 04:02:11;;;;;;;53.15;23.45;;;;;;;1.47;77.58;98162.09;119933;1153;104531;-69
2021/01/01 04:04:40;;;;;;;59.83;25.90;;;;;;;1.48;77.37;98161.17;119940;1153;104472;-69
2021/01/01 04:07:08;;;;;;;61.30;26.53;;;;;;;1.51;77.73;98165.42;119884;1153;104362;-69
2021/01/01 04:09:35;;;;;;;59.20;25.53;;;;;;;1.54;78.01;98164.41;120036;1152;104342;-70
2021/01/01 04:12:04;;;;;;;56.70;23.13;;;;;;;1.52;77.74;98168.88;119893;1153;104508;-69
2021/01/01 04:14:31;;;;;;;59.20;24.77;;;;;;;1.49;77.79;98164.66;119926;1153;104461;-70
2021/01/01 04:17:02;;;;;;;60.90;25.47;;;;;;;1.49;78.01;98167.27;119937;1153;104794;-68
2021/01/01 04:19:33;;;;;;;60.73;24.97;;;;;;;1.47;77.71;98175.20;119840;1153;104403;-67
2021/01/01 04:22:00;;;;;;;56.55;23.75;;;;;;;1.46;77.77;98177.91;119845;1152;104481;-68
2021/01/01 04:24:27;;;;;;;52.58;23.47;;;;;;;1.44;77.88;98175.34;119804;1153;104482;-69
2021/01/01 04:26:54;;;;;;;50.87;21.87;;;;;;;1.40;77.79;98178.20;120203;1151;104468;-68
2021/01/01 04:29:22;;;;;;;51.30;22.40;;;;;;;1.41;77.72;98179.91;119787;1152;104480;-69
2021/01/01 04:31:49;;;;;;;55.63;24.13;;;;;;;1.41;77.83;98180.77;119894;1153;104583;-69
2021/01/01 04:34:16;;;;;;;53.00;24.20;;;;;;;1.42;77.90;98179.84;119723;1153;104395;-69
2021/01/01 04:36:42;;;;;;;58.17;25.68;;;;;;;1.42;77.89;98182.47;119895;1153;104372;-69
2021/01/01 04:39:09;;;;;;;56.17;25.57;;;;;;;1.44;77.19;98192.86;119948;1151;104476;-69
2021/01/01 04:41:41;;;;;;;52.30;24.75;;;;;;;1.46;77.90;98191.02;119893;1153;104457;-69
2021/01/01 04:44:10;;;;;;;58.05;25.65;;;;;;;1.47;77.77;98195.33;120755;1153;104366;-70
2021/01/01 04:46:38;;;;;;;57.83;26.57;;;;;;;1.49;77.48;98202.18;119947;1152;104467;-70
2021/01/01 04:49:12;;;;;;;61.80;25.20;;;;;;;1.51;77.29;98207.36;119943;1153;104426;-67
2021/01/01 04:51:40;;;;;;;60.10;27.63;;;;;;;1.56;78.06;98204.50;119859;1152;104430;-69
2021/01/01 04:54:10;;;;;;;55.40;26.70;;;;;;;1.59;77.56;98201.73;119872;1153;104478;-67
2021/01/01 04:56:52;;;;;;;57.07;26.57;;;;;;;1.62;77.82;98212.06;119961;1151;104393;-69
2021/01/01 04:59:19;;;;;;;57.17;24.90;;;;;;;1.60;77.92;98206.91;119867;1152;104480;-67
2021/01/01 05:01:48;;;;;;;56.93;24.53;;;;;;;1.62;77.38;98210.31;120022;1153;104386;-70
2021/01/01 05:04:14;;;;;;;62.37;26.73;;;;;;;1.65;78.06;98217.16;119954;1153;104383;-69
2021/01/01 05:06:44;;;;;;;56.70;25.93;;;;;;;1.64;77.46;98218.91;119850;1152;104387;-68
2021/01/01 05:09:16;;;;;;;55.23;25.30;;;;;;;1.58;77.63;98221.00;119893;1151;104858;-69
2021/01/01 05:11:43;;;;;;;54.70;24.10;;;;;;;1.52;77.86;98223.92;119879;1154;104462;-68
2021/01/01 05:14:12;;;;;;;57.30;24.63;;;;;;;1.51;77.85;98224.84;120003;1153;104457;-71
2021/01/01 05:16:52;;;;;;;56.13;26.03;;;;;;;1.51;77.88;98224.84;119976;1153;104458;-71
2021/01/01 05:19:19;;;;;;;55.23;25.30;;;;;;;1.48;77.93;98218.00;119899;1154;104463;-69
2021/01/01 05:22:04;;;;;;;53.80;25.87;;;;;;;1.47;78.22;98224.99;119838;1151;104479;-69
2021/01/01 05:24:44;;;;;;;60.63;27.10;;;;;;;1.47;78.12;98229.41;120439;1153;104516;-69
2021/01/01 05:27:17;;;;;;;59.00;25.93;;;;;;;1.47;77.90;98234.64;119821;1153;104863;-69
2021/01/01 05:29:57;;;;;;;62.23;27.10;;;;;;;1.49;77.76;98230.17;120560;1153;104422;-69
2021/01/01 05:32:28;;;;;;;58.80;25.50;;;;;;;1.47;77.63;98230.23;120517;1152;104452;-71
2021/01/01 05:35:01;;;;;;;52.60;24.80;;;;;;;1.49;77.75;98235.42;120037;1154;104359;-70
2021/01/01 05:37:36;;;;;;;67.90;28.00;;;;;;;1.44;78.15;98233.00;119991;1153;104435;-69
2021/01/01 05:40:09;;;;;;;57.00;24.93;;;;;;;1.45;77.98;98245.19;119974;1153;104475;-69
2021/01/01 05:42:38;;;;;;;59.63;25.33;;;;;;;1.39;77.77;98255.13;120006;1152;104457;-68
2021/01/01 05:45:19;;;;;;;57.43;25.53;;;;;;;1.39;77.87;98247.27;119996;1152;104358;-69
2021/01/01 05:48:08;;;;;;;60.03;26.70;;;;;;;1.42;77.89;98247.13;119983;1152;104380;-70
2021/01/01 05:50:39;;;;;;;54.87;24.63;;;;;;;1.44;78.03;98243.48;119967;1153;104521;-70
2021/01/01 05:53:16;;;;;;;56.77;24.23;;;;;;;1.46;77.95;98259.16;119965;1153;104483;-69
2021/01/01 05:55:48;;;;;;;59.53;26.60;;;;;;;1.46;78.16;98249.50;119844;1152;104466;-69
2021/01/01 05:58:21;;;;;;;55.47;25.80;;;;;;;1.48;77.64;98254.69;120007;1153;104481;-68
2021/01/01 06:00:54;;;;;;;52.48;24.20;;;;;;;1.48;77.63;98252.91;120039;1153;104380;-69
2021/01/01 06:03:33;;;;;;;55.60;24.77;;;;;;;1.52;78.13;98250.13;119992;1151;104729;-69
2021/01/01 06:06:04;;;;;;;55.30;23.67;;;;;;;1.53;77.96;98264.94;119789;1153;104479;-70
2021/01/01 06:08:35;;;;;;;52.47;24.00;;;;;;;1.57;78.08;98267.35;119898;1153;104378;-68
2021/01/01 06:11:06;;;;;;;53.87;23.03;;;;;;;1.58;77.96;98260.32;119997;1151;104360;-70
2021/01/01 06:13:38;;;;;;;60.67;25.97;;;;;;;1.58;77.75;98257.70;119996;1152;104391;-70
2021/01/01 06:16:09;;;;;;;52.80;25.17;;;;;;;1.58;77.94;98258.56;119959;1151;104355;-69
2021/01/01 06:18:42;;;;;;;55.30;23.33;;;;;;;1.59;77.68;98256.78;119831;1153;104375;-69
2021/01/01 06:21:09;;;;;;;51.40;22.07;;;;;;;1.58;78.02;98250.70;120014;1152;104375;-69
2021/01/01 06:23:44;;;;;;;53.33;23.63;;;;;;;1.58;78.41;98255.95;120013;1152;104432;-69
2021/01/01 06:26:12;;;;;;;47.47;23.37;;;;;;;1.59;78.02;98259.40;119898;1153;104529;-68
2021/01/01 06:28:46;;;;;;;52.67;23.33;;;;;;;1.61;78.14;98258.42;119794;1154;104484;-70
2021/01/01 06:31:14;;;;;;;49.20;21.00;;;;;;;1.61;78.19;98255.80;120230;1153;104428;-69
2021/01/01 06:33:44;;;;;;;43.90;20.10;;;;;;;1.62;78.03;98265.36;119935;1153;104361;-67
2021/01/01 06:36:37;;;;;;;48.10;22.33;;;;;;;1.61;77.79;98265.41;119792;1154;104396;-70
2021/01/01 06:39:06;;;;;;;47.43;20.05;;;;;;;1.55;77.40;98269.20;119961;1153;104466;-68
2021/01/01 06:41:48;;;;;;;47.03;21.43;;;;;;;1.52;78.06;98261.48;119940;1152;105690;-70
2021/01/01 06:44:34;;;;;;;43.57;20.83;;;;;;;1.54;77.41;98264.02;120047;1154;104361;-68
2021/01/01 06:47:10;;;;;;;46.87;22.20;;;;;;;1.56;77.75;98263.03;120013;1153;104372;-68
2021/01/01 06:49:40;;;;;;;49.57;24.00;;;;;;;1.60;78.04;98272.45;120133;1154;104467;-69
2021/01/01 06:52:07;;;;;;;45.50;21.47;;;;;;;1.64;78.04;98271.34;120012;1153;104390;-69
2021/01/01 06:54:53;;;;;;;48.90;23.73;;;;;;;1.67;78.14;98266.88;119930;1153;104473;-69
2021/01/01 06:57:23;;;;;;;46.40;21.93;;;;;;;1.71;78.05;98266.67;120585;1153;104476;-68
2021/01/01 06:59:55;;;;;;;47.23;22.50;;;;;;;1.76;78.22;98271.67;120044;1153;104348;-68
2021/01/01 07:02:27;;;;;;;50.87;22.90;;;;;;;1.76;78.07;98279.54;119957;1153;104837;-69
2021/01/01 07:04:55;;;;;;;50.63;24.20;;;;;;;1.75;77.93;98272.59;119933;1153;104486;-66
2021/01/01 07:07:41;;;;;;;51.57;24.20;;;;;;;1.75;77.79;98280.46;119905;1153;104530;-70
2021/01/01 07:10:34;;;;;;;49.57;22.93;;;;;;;1.77;77.92;98283.86;119939;1153;104355;-70
2021/01/01 07:13:17;;;;;;;54.25;25.25;;;;;;;1.78;78.02;98282.94;119939;1151;104489;-70
2021/01/01 07:15:45;;;;;;;50.13;25.17;;;;;;;1.81;78.16;98287.20;120550;1153;104540;-71
2021/01/01 07:18:17;;;;;;;43.73;22.00;;;;;;;1.83;77.96;98296.67;119941;1151;104378;-71
2021/01/01 07:20:44;;;;;;;49.07;23.67;;;;;;;1.84;77.51;98292.27;120050;1151;104456;-72
2021/01/01 07:23:11;;;;;;;50.30;23.70;;;;;;;1.87;78.26;98299.98;119955;1151;104861;-71
2021/01/01 07:25:40;;;;;;;48.67;23.83;;;;;;;1.89;77.60;98301.63;120025;1153;104458;-69
2021/01/01 07:28:10;;;;;;;52.37;25.13;;;;;;;1.91;77.93;98309.39;119975;1153;104429;-70
2021/01/01 07:30:37;;;;;;;50.43;25.03;;;;;;;1.91;78.04;98305.02;119994;1153;104526;-69
2021/01/01 07:33:04;;;;;;;56.85;29.27;;;;;;;1.93;78.57;98308.41;120009;1152;104378;-70
2021/01/01 07:35:32;;;;;;;55.67;27.67;;;;;;;1.95;78.00;98308.33;120031;1153;104471;-70
2021/01/01 07:38:03;;;;;;;51.55;26.55;;;;;;;1.98;77.66;98304.72;119960;1154;104430;-68
2021/01/01 07:40:32;;;;;;;53.60;25.17;;;;;;;2.00;77.72;98300.25;119915;1152;104391;-69
2021/01/01 07:42:59;;;;;;;56.77;27.70;;;;;;;1.99;78.26;98309.04;119827;1153;104426;-69
2021/01/01 07:45:31;;;;;;;57.90;27.77;;;;;;;1.99;77.93;98315.12;120469;1152;104453;-69
2021/01/01 07:47:58;;;;;;;49.83;23.50;;;;;;;1.98;77.97;98321.29;119858;1153;104429;-69
2021/01/01 07:50:25;;;;;;;53.57;26.17;;;;;;;1.96;78.29;98323.14;119887;1151;104486;-70
2021/01/01 07:53:03;;;;;;;56.23;25.47;;;;;;;1.97;77.95;98314.34;119856;1152;104474;-68
2021/01/01 07:55:31;;;;;;;54.60;25.97;;;;;;;1.99;78.26;98333.48;120111;1153;104410;-69
2021/01/01 07:58:13;;;;;;;58.97;26.33;;;;;;;2.00;77.62;98324.69;120014;1151;104480;-68
2021/01/01 08:00:46;;;;;;;55.97;27.80;;;;;;;2.03;77.91;98326.33;119846;1153;104380;-68
2021/01/01 08:03:14;;;;;;;52.27;25.13;;;;;;;2.04;78.30;98334.11;121044;1152;104516;-69
2021/01/01 08:05:45;;;;;;;53.23;24.47;;;;;;;2.04;77.66;98333.23;119973;1153;104375;-68
2021/01/01 08:08:23;;;;;;;57.83;28.07;;;;;;;2.06;78.15;98339.27;119906;1153;104500;-69
2021/01/01 08:10:52;;;;;;;47.43;22.80;;;;;;;2.10;78.42;98345.23;119889;1153;104384;-69
2021/01/01 08:13:19;;;;;;;44.83;19.07;;;;;;;2.11;78.15;98353.00;120059;1152;104383;-69
2021/01/01 08:15:47;;;;;;;39.90;19.62;;;;;;;2.13;78.04;98342.45;119852;1152;104391;-68
2021/01/01 08:18:20;;;;;;;41.80;19.60;;;;;;;2.15;77.75;98346.68;119966;1153;104432;-69
2021/01/01 08:20:49;;;;;;;43.47;20.30;;;;;;;2.17;78.01;98350.08;120590;1152;104447;-69
2021/01/01 08:23:19;;;;;;;45.83;20.83;;;;;;;2.19;77.77;98352.64;119902;1152;104487;-68
2021/01/01 08:25:47;;;;;;;46.63;22.43;;;;;;;2.22;78.58;98350.70;119868;1154;104457;-66
2021/01/01 08:28:23;;;;;;;44.37;21.13;;;;;;;2.25;78.21;98351.48;120708;1153;104326;-67
2021/01/01 08:31:01;;;;;;;41.03;19.47;;;;;;;2.26;78.43;98355.80;119868;1153;104468;-68
2021/01/01 08:33:40;;;;;;;44.13;20.77;;;;;;;2.26;78.15;98359.26;120020;1151;104356;-68
2021/01/01 08:36:13;;;;;;;42.13;18.27;;;;;;;2.24;77.88;98363.77;120302;1153;104465;-66
2021/01/01 08:38:47;;;;;;;47.33;22.55;;;;;;;2.23;77.70;98364.69;119951;1153;104433;-69
2021/01/01 08:41:16;;;;;;;44.57;21.20;;;;;;;2.26;78.24;98377.63;119932;1153;104457;-67
2021/01/01 08:43:44;;;;;;;38.35;18.70;;;;;;;2.27;77.71;98373.25;120053;1153;104860;-68
2021/01/01 08:46:18;;;;;;;30.70;13.50;;;;;;;2.26;78.24;98377.63;120000;1152;104497;-69
2021/01/01 08:48:45;;;;;;;28.20;12.43;;;;;;;2.24;78.07;98379.52;119892;1153;104539;-71
2021/01/01 08:51:12;;;;;;;32.13;13.03;;;;;;;2.25;78.01;98375.93;119839;1153;104433;-69
2021/01/01 08:53:40;;;;;;;32.50;13.80;;;;;;;2.28;77.90;98377.56;119860;1152;104462;-69
2021/01/01 08:56:08;;;;;;;31.37;13.10;;;;;;;2.32;77.76;98366.83;120092;1151;104886;-70
2021/01/01 08:58:36;;;;;;;32.33;14.87;;;;;;;2.35;78.16;98386.84;119970;1151;104442;-69
2021/01/01 09:01:23;;;;;;;30.37;13.47;;;;;;;2.34;77.79;98379.89;119955;1154;104933;-66
2021/01/01 09:04:03;;;;;;;35.00;15.20;;;;;;;2.34;77.76;98383.34;119888;1153;104381;-69
2021/01/01 09:06:30;;;;;;;34.43;14.97;;;;;;;2.36;77.63;98384.13;119848;1153;104384;-70
2021/01/01 09:09:09;;;;;;;31.53;14.67;;;;;;;2.37;78.12;98384.98;119780;1153;104427;-70
2021/01/01 09:11:36;;;;;;;33.17;14.87;;;;;;;2.37;77.66;98385.83;120634;1151;104461;-69
2021/01/01 09:14:05;;;;;;;34.47;15.57;;;;;;;2.40;77.99;98389.22;119792;1153;104491;-70
2021/01/01 09:16:46;;;;;;;33.30;15.73;;;;;;;2.39;77.74;98388.39;119706;1152;104450;-71
2021/01/01 09:19:13;;;;;;;34.43;16.27;;;;;;;2.41;77.62;98383.05;119803;1151;104466;-71
2021/01/01 09:21:41;;;;;;;39.13;18.43;;;;;;;2.43;77.73;98384.69;119791;1153;104586;-69
2021/01/01 09:24:08;;;;;;;37.23;16.50;;;;;;;2.44;77.91;98390.77;119840;1153;104352;-70
2021/01/01 09:26:35;;;;;;;39.77;17.50;;;;;;;2.46;77.48;98386.30;119973;1153;104508;-71
2021/01/01 09:29:09;;;;;;;41.07;17.40;;;;;;;2.45;78.13;98387.22;119922;1153;104881;-68
2021/01/01 09:31:37;;;;;;;38.90;18.70;;;;;;;2.48;78.13;98390.52;120035;1153;104372;-70
2021/01/01 09:34:08;;;;;;;38.00;16.40;;;;;;;2.53;77.75;98387.69;119819;1154;104500;-71
2021/01/01 09:36:39;;;;;;;34.80;16.15;;;;;;;2.54;77.64;98392.02;119778;1151;104380;-71
2021/01/01 09:39:08;;;;;;;30.70;13.50;;;;;;;2.53;78.26;98392.94;119760;1153;104561;-69
2021/01/01 09:41:37;;;;;;;33.00;14.20;;;;;;;2.53;77.33;98396.39;119873;1152;104354;-69
2021/01/01 09:44:05;;;;;;;30.45;13.85;;;;;;;2.56;77.37;98394.55;119890;1153;104828;-70
2021/01/01 09:46:32;;;;;;;29.97;13.77;;;;;;;2.62;77.95;98395.10;121919;1151;102410;-70
2021/01/01 09:48:59;;;;;;;32.03;13.30;;;;;;;2.67;77.59;98395.69;121931;1152;102057;-70
2021/01/01 09:51:26;;;;;;;30.00;12.78;;;;;;;2.72;78.17;98398.10;121280;1152;104508;-70
2021/01/01 09:53:53;;;;;;;27.23;11.50;;;;;;;2.77;77.34;98387.34;119924;1152;104486;-71
2021/01/01 09:56:20;;;;;;;30.90;14.07;;;;;;;2.78;76.93;98389.05;119931;1151;104377;-70
2021/01/01 09:58:47;;;;;;;30.20;13.28;;;;;;;2.81;77.42;98383.63;119973;1153;104869;-71
2021/01/01 10:01:17;;;;;;;31.53;13.60;;;;;;;2.87;77.36;98387.70;119972;1153;104426;-70
2021/01/01 10:03:44;;;;;;;32.17;13.70;;;;;;;2.90;77.52;98384.92;120008;1153;104453;-71
2021/01/01 10:06:13;;;;;;;32.23;15.08;;;;;;;2.93;77.55;98380.38;120025;1151;104455;-71
2021/01/01 10:08:40;;;;;;;26.95;12.80;;;;;;;2.97;77.43;98379.29;120004;1153;104362;-70
2021/01/01 10:11:13;;;;;;;30.85;14.45;;;;;;;2.98;77.82;98380.13;119949;1153;104388;-70
2021/01/01 10:13:41;;;;;;;34.03;14.63;;;;;;;3.01;77.80;98385.22;119949;1154;104386;-70
2021/01/01 10:16:09;;;;;;;30.03;13.13;;;;;;;3.00;77.73;98385.31;120050;1153;104511;-70
2021/01/01 10:18:38;;;;;;;29.00;13.40;;;;;;;2.89;77.19;98389.34;120017;1153;104477;-71
2021/01/01 10:21:07;;;;;;;29.10;13.07;;;;;;;2.82;77.34;98382.70;120012;1152;104442;-70
2021/01/01 10:23:35;;;;;;;27.60;12.40;;;;;;;2.78;76.78;98376.78;120045;1153;104382;-70
2021/01/01 10:26:02;;;;;;;30.80;13.30;;;;;;;2.80;77.02;98382.80;120035;1152;104460;-71
2021/01/01 10:28:29;;;;;;;30.37;12.97;;;;;;;2.80;77.33;98385.42;120082;1152;104465;-71
2021/01/01 10:30:56;;;;;;;30.50;13.53;;;;;;;2.83;77.93;98379.16;120001;1153;104767;-70
2021/01/01 10:33:24;;;;;;;28.57;13.03;;;;;;;2.89;77.24;98386.72;120005;1153;104381;-71
2021/01/01 10:35:51;;;;;;;30.30;13.80;;;;;;;2.92;77.35;98388.32;119999;1153;104433;-71
2021/01/01 10:38:18;;;;;;;29.17;13.20;;;;;;;2.95;77.40;98380.28;120073;1153;104430;-72
2021/01/01 10:40:45;;;;;;;30.37;13.57;;;;;;;2.97;77.60;98388.94;120016;1153;104356;-72
2021/01/01 10:43:12;;;;;;;32.08;13.05;;;;;;;3.00;77.47;98382.69;120110;1151;104454;-71
2021/01/01 10:45:39;;;;;;;29.97;13.50;;;;;;;3.00;77.63;98386.14;119981;1154;104858;-70
2021/01/01 10:48:07;;;;;;;30.97;14.37;;;;;;;3.01;77.35;98384.38;120052;1153;104436;-70
2021/01/01 10:50:34;;;;;;;33.83;15.53;;;;;;;3.05;77.59;98384.13;120029;1152;104355;-69
2021/01/01 10:53:00;;;;;;;31.27;15.40;;;;;;;3.09;77.04;98382.17;119915;1151;104454;-68
2021/01/01 10:55:28;;;;;;;36.03;16.40;;;;;;;3.11;77.34;98378.55;119929;1151;104522;-69
2021/01/01 10:57:55;;;;;;;33.13;14.97;;;;;;;3.12;77.63;98377.63;119994;1152;104777;-70
2021/01/01 11:00:23;;;;;;;35.50;16.23;;;;;;;3.12;77.71;98372.37;120065;1152;104493;-70
2021/01/01 11:02:51;;;;;;;35.33;17.03;;;;;;;3.15;77.83;98373.97;120040;1152;104465;-70
2021/01/01 11:05:18;;;;;;;36.97;17.47;;;;;;;3.17;77.53;98369.48;119988;1153;104397;-70
2021/01/01 11:07:46;;;;;;;38.27;18.07;;;;;;;3.19;76.92;98377.30;119905;1151;104354;-70
2021/01/01 11:10:14;;;;;;;39.67;18.10;;;;;;;3.20;77.57;98371.95;119855;1153;104979;-71
2021/01/01 11:12:41;;;;;;;33.27;15.30;;;;;;;3.20;77.08;98364.06;119902;1151;104484;-68
2021/01/01 12:22:28;;;;;;;33.90;16.70;;;;;;;3.20;77.49;98390.34;120025;1153;104461;-69
2021/01/01 12:24:58;;;;;;;32.57;15.53;;;;;;;3.24;77.09;98388.42;120036;1151;104514;-70
2021/01/01 12:27:35;;;;;;;33.97;15.93;;;;;;;3.26;77.81;98391.81;119986;1151;104923;-70
2021/01/01 12:30:09;;;;;;;32.87;16.23;;;;;;;3.30;77.29;98381.97;119938;1153;104452;-71